RJFN(METAR)
05/30 16:00
METAR RJFN 300700Z 01003KT 9999 -RA FEW030 SCT080 OVC100 22/17 Q1017
RMK 1CU030 3AC080 8AS100 A3005=
戻る
トップページへ戻る
IMOC Co,.Ltd.